SBP - San Luis Obispo County Rgnl

Pirep is a free, collaborative database of all public and private airports located within the United States. All pilots are welcome to contribute, edit, and improve any airport they have local knowledge about, no registration required.
Uploaded photos will be licensed under a CC BY-SA 4.0 license. Please only upload photos you have the rights to use.
Tags
Public
Food
Camping
Lodging
Bicycles
Swimming
Golfing
Car Rental
METAR / TAF
Edit Tags
Fishing
Hot Springs
Museum
Flying Clubs
Airpark
Upcoming Events
No upcoming events. Is anything happening here soon?
*
*
*

Where exactly on/near the airport is this event taking place?

Is there a webpage with more information for this event?

Who should be contacted for more information?

What is this event all about?

Repeat every
Description
Last updated: 2023-05-31 19:46:46 PDT
Transient Parking
Last updated: 2023-08-23 22:43:13 PDT
Fuel Location
Landing & Tie-down Fees
Last updated: 2023-04-05 10:25:25 PDT
Crew Car Availability
Last updated: 2023-08-23 22:43:13 PDT
Flying Clubs
WiFi Access
Airport Statistics
Location: San Luis Obispo, CA
Elevation: 212ft
Sectional: Los Angeles
Activation date: Apr 1940
Fuel: 100LL, A (prices)
Runway 11/29: 6,101ft
Runway 07/25: 2,500ft
Access: Open to the public
Current Weather — VFR
  • Weather data is strictly informational and not for flight planning purposes.
  • METAR
    2024-05-29 10:56:00 PDT
    Ceiling Wind Temperature Dewpoint Weather Visbility
    Sky clear 310° @ 14kt 69°F 51°F N/A 10SM
    Raw: KSBP 291756Z 31014KT 10SM CLR 21/11 A3005 RMK AO2 SLP174 T02110111 10217 20094 55007
  • TAF
    2024-05-29 11:00:00 PDT – 2024-05-29 13:00:00 PDT
    Ceiling Wind Weather Visbility
    Sky clear 300° @ 10kt N/A 6SM
    Clouds: @ ft
    Raw: KSBP 291754Z 2918/3018 30010KT P6SM SKC FM292000 31017G25KT P6SM SKC FM300100 31012KT P6SM SKC FM300300 31008KT P6SM SKC FM300500 VRB03KT P6SM SKC FM301700 31008KT P6SM SKC
  • TAF
    2024-05-29 13:00:00 PDT – 2024-05-29 18:00:00 PDT
    Ceiling Wind Weather Visbility
    Sky clear 310° @ 17kt, gusts 25kt N/A 6SM
    Clouds: @ ft
    Raw: KSBP 291754Z 2918/3018 30010KT P6SM SKC FM292000 31017G25KT P6SM SKC FM300100 31012KT P6SM SKC FM300300 31008KT P6SM SKC FM300500 VRB03KT P6SM SKC FM301700 31008KT P6SM SKC
  • TAF
    2024-05-29 18:00:00 PDT – 2024-05-29 20:00:00 PDT
    Ceiling Wind Weather Visbility
    Sky clear 310° @ 12kt N/A 6SM
    Clouds: @ ft
    Raw: KSBP 291754Z 2918/3018 30010KT P6SM SKC FM292000 31017G25KT P6SM SKC FM300100 31012KT P6SM SKC FM300300 31008KT P6SM SKC FM300500 VRB03KT P6SM SKC FM301700 31008KT P6SM SKC
  • TAF
    2024-05-29 20:00:00 PDT – 2024-05-29 22:00:00 PDT
    Ceiling Wind Weather Visbility
    Sky clear 310° @ 8kt N/A 6SM
    Clouds: @ ft
    Raw: KSBP 291754Z 2918/3018 30010KT P6SM SKC FM292000 31017G25KT P6SM SKC FM300100 31012KT P6SM SKC FM300300 31008KT P6SM SKC FM300500 VRB03KT P6SM SKC FM301700 31008KT P6SM SKC
  • TAF
    2024-05-29 22:00:00 PDT – 2024-05-30 10:00:00 PDT
    Ceiling Wind Weather Visbility
    Sky clear Variable N/A 6SM
    Clouds: @ ft
    Raw: KSBP 291754Z 2918/3018 30010KT P6SM SKC FM292000 31017G25KT P6SM SKC FM300100 31012KT P6SM SKC FM300300 31008KT P6SM SKC FM300500 VRB03KT P6SM SKC FM301700 31008KT P6SM SKC
  • TAF
    2024-05-30 10:00:00 PDT – 2024-05-30 11:00:00 PDT
    Ceiling Wind Weather Visbility
    Sky clear 310° @ 8kt N/A 6SM
    Clouds: @ ft
    Raw: KSBP 291754Z 2918/3018 30010KT P6SM SKC FM292000 31017G25KT P6SM SKC FM300100 31012KT P6SM SKC FM300300 31008KT P6SM SKC FM300500 VRB03KT P6SM SKC FM301700 31008KT P6SM SKC
Click/tap to add an annotation marker to the map
Airport Webcams
No webcams added yet.
Direct links to live image URLs will be displayed inline on this page. URLs to separate webpages will be linked to.
URL:
Direct links to live image URLs will be displayed inline on this page. URLs to separate webpages will be linked to.
URL:
Remarks
  • Prior to 15 may 1959.
  • Refil customer bottle.
  • Rwy 7/25 not avbl for sked acr opns with more than 9 psgr seats or unsked acr at least 31 psgr seats.
  • Recurring flocks of waterfowl on and in vicinity of arpt durg winter months.
  • Taxilane widths less than standard.
Comments
  • This comment was flagged as outdated on .

    Pismo Beach is a 14 minute car ride away.

    Created 9 months ago (2023-08-24 01:18:33 UTC)
    Helpful count: 1
Leave a comment What was your experience like at this airport?